Time;durP1;ratioP1;P1;durP2;ratioP2;P2;SDS_P1;SDS_P2;PMS_P1;PMS_P2;Temp;Humidity;BMP_temperature;BMP_pressure;BME280_temperature;BME280_humidity;BME280_pressure;Samples;Min_cycle;Max_cycle;Signal;HPM_P1;HPM_P2
2022/07/14 00:01:43;;;;;;;19.67;4.20;;;14.70;99.90;;;;;;5071749;28;20438;-58
2022/07/14 00:04:09;;;;;;;21.73;3.88;;;14.40;99.90;;;;;;5071682;28;20052;-58
2022/07/14 00:06:35;;;;;;;15.40;4.15;;;14.80;99.90;;;;;;5071626;28;20131;-58
2022/07/14 00:09:01;;;;;;;19.48;4.10;;;14.60;99.90;;;;;;5070653;28;20119;-58
2022/07/14 00:11:27;;;;;;;13.20;3.50;;;14.50;99.90;;;;;;5071485;28;20098;-58
2022/07/14 00:13:53;;;;;;;16.75;3.63;;;14.20;99.90;;;;;;5053299;28;20045;-58
2022/07/14 00:16:19;;;;;;;15.45;3.70;;;14.40;99.90;;;;;;5053739;28;20080;-58
2022/07/14 00:18:45;;;;;;;14.95;3.47;;;14.50;99.90;;;;;;5070670;28;20083;-58
2022/07/14 00:21:15;;;;;;;14.50;3.60;;;14.40;99.90;;;;;;5071575;28;20044;-58
2022/07/14 00:23:41;;;;;;;16.65;3.60;;;14.40;99.90;;;;;;5053264;28;20051;-58
2022/07/14 00:26:07;;;;;;;12.48;3.60;;;14.10;99.90;;;;;;5052983;28;20056;-58
2022/07/14 00:28:34;;;;;;;12.95;3.40;;;14.10;99.90;;;;;;5071164;28;20117;-58
2022/07/14 00:31:03;;;;;;;16.13;3.75;;;14.60;99.90;;;;;;5071041;28;20048;-58
2022/07/14 00:33:33;;;;;;;16.50;3.80;;;14.20;99.90;;;;;;5070910;28;20048;-58
2022/07/14 00:35:58;;;;;;;14.80;3.50;;;14.40;99.90;;;;;;5070218;28;20354;-58
2022/07/14 00:38:24;;;;;;;14.80;3.80;;;14.60;99.90;;;;;;5070701;28;20132;-58
2022/07/14 00:40:50;;;;;;;16.67;3.72;;;14.20;99.90;;;;;;5071261;28;20059;-58
2022/07/14 00:43:16;;;;;;;15.25;3.70;;;14.20;99.90;;;;;;5071090;28;20080;-58
2022/07/14 00:45:42;;;;;;;14.50;3.60;;;;;;;;;;5070393;28;20060;-58
2022/07/14 00:48:08;;;;;;;16.83;4.00;;;14.00;99.90;;;;;;5070425;28;20048;-58
2022/07/14 00:50:34;;;;;;;15.27;3.28;;;14.50;99.90;;;;;;5070711;28;20533;-58
2022/07/14 00:53:07;;;;;;;16.63;3.60;;;14.20;99.90;;;;;;5070503;28;20582;-58
2022/07/14 00:55:33;;;;;;;13.52;3.80;;;14.00;99.90;;;;;;5070591;28;20052;-58
2022/07/14 00:57:59;;;;;;;19.52;3.55;;;14.20;99.90;;;;;;5070196;28;20051;-58
2022/07/14 01:00:24;;;;;;;15.93;3.70;;;14.30;99.90;;;;;;5070245;28;20044;-58
2022/07/14 01:02:50;;;;;;;14.27;3.30;;;14.30;99.90;;;;;;5067929;28;20479;-58
2022/07/14 01:05:17;;;;;;;17.83;3.63;;;14.10;99.90;;;;;;5070113;28;20044;-58
2022/07/14 01:07:43;;;;;;;13.65;3.58;;;14.00;99.90;;;;;;5069711;28;20048;-58
2022/07/14 01:10:10;;;;;;;13.10;3.42;;;14.20;99.90;;;;;;5070672;28;20131;-58
2022/07/14 01:12:37;;;;;;;9.93;3.03;;;13.60;99.90;;;;;;5052670;28;20474;-58
2022/07/14 01:15:04;;;;;;;15.15;3.53;;;13.80;99.90;;;;;;5052100;28;20048;-58
2022/07/14 01:17:31;;;;;;;13.85;3.55;;;;;;;;;;5070146;28;20049;-58
2022/07/14 01:19:57;;;;;;;15.75;3.95;;;;;;;;;;5069832;28;20103;-58
2022/07/14 01:22:23;;;;;;;14.75;3.90;;;;;;;;;;5070273;28;20040;-58
2022/07/14 01:24:49;;;;;;;13.73;3.88;;;13.90;99.90;;;;;;5069782;28;20484;-58
2022/07/14 01:27:14;;;;;;;17.63;3.53;;;13.60;99.90;;;;;;5070311;28;20055;-58
2022/07/14 01:29:40;;;;;;;15.25;3.65;;;;;;;;;;5070108;28;20052;-58
2022/07/14 01:32:06;;;;;;;15.68;3.70;;;13.40;99.90;;;;;;5052121;28;20399;-58
2022/07/14 01:34:32;;;;;;;11.60;3.63;;;13.30;99.90;;;;;;5070020;28;20048;-58
2022/07/14 01:36:57;;;;;;;10.20;3.33;;;13.30;99.90;;;;;;5069297;28;20061;-58
2022/07/14 01:39:23;;;;;;;13.48;3.30;;;13.40;99.90;;;;;;5052444;28;20523;-58
2022/07/14 01:41:49;;;;;;;16.40;3.80;;;13.40;99.90;;;;;;5069789;28;20059;-58
2022/07/14 01:44:15;;;;;;;17.15;3.50;;;;;;;;;;5070140;28;20475;-58
2022/07/14 01:46:41;;;;;;;12.68;3.33;;;13.30;99.90;;;;;;5069649;28;20095;-58
2022/07/14 01:49:07;;;;;;;9.95;3.28;;;13.40;99.90;;;;;;5069948;28;20195;-58
2022/07/14 01:51:34;;;;;;;10.18;3.25;;;13.40;99.90;;;;;;5070253;28;20044;-58
2022/07/14 01:54:01;;;;;;;10.63;3.35;;;13.50;99.90;;;;;;5069774;28;20045;-58
2022/07/14 01:56:26;;;;;;;10.77;3.25;;;13.30;99.90;;;;;;5069593;28;20048;-58
2022/07/14 01:58:52;;;;;;;11.23;3.10;;;13.30;99.90;;;;;;5069686;28;20068;-58
2022/07/14 02:04:04;;;;;;;12.60;3.17;;;13.20;99.90;;;;;;5069295;28;20111;-57
2022/07/14 02:06:30;;;;;;;10.50;3.33;;;13.20;99.90;;;;;;5069566;28;20063;-58
2022/07/14 02:08:59;;;;;;;10.75;3.20;;;13.30;99.90;;;;;;5051365;28;20055;-58
2022/07/14 02:14:10;;;;;;;11.50;3.67;;;13.00;99.90;;;;;;5050040;28;20341;-58
2022/07/14 02:16:36;;;;;;;13.07;3.58;;;13.20;99.90;;;;;;5049646;28;20093;-58
2022/07/14 02:19:03;;;;;;;12.02;3.58;;;13.20;99.90;;;;;;5051168;28;20060;-58
2022/07/14 02:21:29;;;;;;;14.57;3.75;;;12.90;99.90;;;;;;5054008;28;20102;-58
2022/07/14 02:23:56;;;;;;;13.45;3.58;;;10.20;99.90;;;;;;5053309;28;20044;-58
2022/07/14 02:26:23;;;;;;;9.05;3.33;;;13.10;99.90;;;;;;5054183;28;20056;-58
2022/07/14 02:28:49;;;;;;;11.18;3.72;;;;;;;;;;5053087;28;20127;-58
2022/07/14 02:31:15;;;;;;;12.38;3.55;;;;;;;;;;5053579;28;20115;-58
2022/07/14 02:33:41;;;;;;;10.75;3.25;;;13.20;99.90;;;;;;5052754;28;20061;-58
2022/07/14 02:36:07;;;;;;;13.70;3.45;;;13.30;99.90;;;;;;5053266;28;20041;-59
2022/07/14 02:38:33;;;;;;;11.88;3.55;;;13.20;99.90;;;;;;5052818;28;20061;-59
2022/07/14 02:40:59;;;;;;;11.80;3.80;;;12.70;99.90;;;;;;5053026;28;20056;-59
2022/07/14 02:43:26;;;;;;;15.60;4.00;;;13.30;99.90;;;;;;5052983;28;20051;-59
2022/07/14 02:45:52;;;;;;;10.65;3.58;;;;;;;;;;5053171;28;20413;-59
2022/07/14 02:48:18;;;;;;;13.57;3.80;;;13.20;99.90;;;;;;5052971;28;20053;-59
2022/07/14 02:50:45;;;;;;;12.23;3.70;;;13.20;99.90;;;;;;5052227;28;20484;-59
2022/07/14 02:53:11;;;;;;;12.90;3.95;;;;;;;;;;5052986;28;20049;-59
2022/07/14 02:55:37;;;;;;;15.73;4.10;;;13.20;99.90;;;;;;5052849;28;20140;-60
2022/07/14 02:58:06;;;;;;;13.00;4.10;;;13.60;99.90;;;;;;5052848;28;20103;-59
2022/07/14 03:00:32;;;;;;;11.93;3.90;;;13.00;99.90;;;;;;5052913;28;20419;-59
2022/07/14 03:03:00;;;;;;;11.93;4.10;;;13.00;99.90;;;;;;5052170;28;20535;-59
2022/07/14 03:05:25;;;;;;;10.48;3.72;;;12.70;99.90;;;;;;5052942;28;20330;-59
2022/07/14 03:07:51;;;;;;;12.93;4.10;;;13.00;99.90;;;;;;5052513;28;20562;-59
2022/07/14 03:10:17;;;;;;;13.57;3.90;;;;;;;;;;5052980;28;20079;-59
2022/07/14 03:12:43;;;;;;;11.55;3.45;;;13.20;99.90;;;;;;5052237;28;20048;-59
2022/07/14 03:15:10;;;;;;;13.60;4.00;;;12.80;99.90;;;;;;5052676;28;20049;-59
2022/07/14 03:17:38;;;;;;;11.30;3.60;;;;;;;;;;5052496;28;20080;-59
2022/07/14 03:20:06;;;;;;;10.80;3.70;;;12.80;99.90;;;;;;5052263;28;20507;-59
2022/07/14 03:22:32;;;;;;;11.85;4.05;;;12.80;99.90;;;;;;5052334;28;20122;-58
2022/07/14 03:24:59;;;;;;;12.70;3.75;;;;;;;;;;5052315;28;20052;-58
2022/07/14 03:27:25;;;;;;;15.05;3.97;;;12.90;99.90;;;;;;5052571;28;20488;-58
2022/07/14 03:29:51;;;;;;;12.10;3.90;;;12.80;99.90;;;;;;5051895;28;20041;-58
2022/07/14 03:32:17;;;;;;;14.75;4.22;;;;;;;;;;5051612;28;20041;-58
2022/07/14 03:34:43;;;;;;;17.20;4.55;;;12.90;99.90;;;;;;5051825;28;20163;-58
2022/07/14 03:37:09;;;;;;;14.05;4.50;;;12.60;99.90;;;;;;5017751;28;20049;-58
2022/07/14 03:39:36;;;;;;;15.48;4.30;;;12.50;99.90;;;;;;5052230;28;20056;-58
2022/07/14 03:42:02;;;;;;;10.95;4.25;;;;;;;;;;5051269;28;20580;-58
2022/07/14 03:44:28;;;;;;;16.00;4.72;;;;;;;;;;5051998;28;20041;-58
2022/07/14 03:46:54;;;;;;;18.42;4.80;;;;;;;;;;5051293;28;20060;-58
2022/07/14 03:49:20;;;;;;;11.55;4.20;;;;;;;;;;5052249;28;20104;-58
2022/07/14 03:51:46;;;;;;;12.43;4.15;;;12.60;99.90;;;;;;5051239;28;20060;-58
2022/07/14 03:54:12;;;;;;;8.23;4.07;;;;;;;;;;5034151;28;20454;-58
2022/07/14 03:56:38;;;;;;;10.30;3.80;;;12.80;99.90;;;;;;5051788;28;20041;-58
2022/07/14 03:59:05;;;;;;;11.10;3.78;;;12.60;99.90;;;;;;5051490;28;20049;-58
2022/07/14 04:01:31;;;;;;;6.38;3.10;;;12.70;99.90;;;;;;5051885;28;20048;-58
2022/07/14 04:03:57;;;;;;;9.52;2.70;;;12.00;99.90;;;;;;5050611;28;20394;-58
2022/07/14 04:06:23;;;;;;;9.38;3.13;;;;;;;;;;5033496;28;20463;-58
2022/07/14 04:08:48;;;;;;;6.15;2.80;;;12.20;99.90;;;;;;5051280;28;20044;-58
2022/07/14 04:11:15;;;;;;;6.88;2.35;;;;;;;;;;5033392;28;20057;-58
2022/07/14 04:13:41;;;;;;;4.78;2.42;;;12.80;99.90;;;;;;5032995;28;20052;-58
2022/07/14 04:16:07;;;;;;;5.07;2.35;;;12.60;99.90;;;;;;5051133;28;20045;-58
2022/07/14 04:18:33;;;;;;;5.25;2.53;;;;;;;;;;5051160;28;20037;-58
2022/07/14 04:20:59;;;;;;;8.75;3.45;;;;;;;;;;5032909;28;20049;-58
2022/07/14 04:23:25;;;;;;;10.48;3.58;;;13.10;99.90;;;;;;5051418;28;20400;-58
2022/07/14 04:25:51;;;;;;;9.65;3.28;;;13.00;99.90;;;;;;5050962;28;20053;-58
2022/07/14 04:28:17;;;;;;;8.93;3.63;;;13.20;99.90;;;;;;5050944;28;20099;-58
2022/07/14 04:30:43;;;;;;;10.77;3.90;;;13.20;99.90;;;;;;5032800;28;20484;-58
2022/07/14 04:33:12;;;;;;;12.25;3.90;;;13.40;99.90;;;;;;5050931;28;20052;-58
2022/07/14 04:35:38;;;;;;;9.80;3.90;;;13.40;99.90;;;;;;5051294;28;20044;-58
2022/07/14 04:38:04;;;;;;;10.50;4.00;;;;;;;;;;5016496;28;20504;-58
2022/07/14 04:40:30;;;;;;;11.35;4.10;;;;;;;;;;5032891;28;20056;-58
2022/07/14 04:42:56;;;;;;;15.65;4.47;;;;;;;;;;5049784;28;20067;-58
2022/07/14 04:45:22;;;;;;;11.85;4.05;;;14.70;99.90;;;;;;5050804;28;20500;-58
2022/07/14 04:47:51;;;;;;;11.77;3.70;;;15.60;99.90;;;;;;5050010;28;20060;-58
2022/07/14 04:53:01;;;;;;;10.65;3.75;;;;;;;;;;5050681;28;20083;-58
2022/07/14 04:55:27;;;;;;;11.30;4.85;;;19.00;99.90;;;;;;5050829;28;20045;-59
2022/07/14 04:57:53;;;;;;;8.27;3.30;;;20.50;99.90;;;;;;5049858;28;20054;-59
2022/07/14 05:00:18;;;;;;;12.18;3.20;;;20.90;99.90;;;;;;5047098;28;20424;-59
2022/07/14 05:02:44;;;;;;;8.98;3.30;;;20.90;99.90;;;;;;5031009;28;20124;-59
2022/07/14 05:05:10;;;;;;;9.20;3.40;;;22.00;99.90;;;;;;5031982;28;20136;-59
2022/07/14 05:07:36;;;;;;;12.05;3.03;;;22.80;99.90;;;;;;5049960;28;20103;-59
2022/07/14 05:10:04;;;;;;;12.00;3.55;;;22.80;99.90;;;;;;5030883;28;20053;-60
2022/07/14 05:12:30;;;;;;;8.73;2.92;;;23.70;99.90;;;;;;5049215;28;20195;-60
2022/07/14 05:14:56;;;;;;;8.35;2.90;;;23.60;99.40;;;;;;5011655;28;20049;-60
2022/07/14 05:17:22;;;;;;;11.05;3.53;;;24.20;98.20;;;;;;5049039;28;20045;-60
2022/07/14 05:19:49;;;;;;;7.03;2.92;;;23.40;91.40;;;;;;5048352;28;20033;-58
2022/07/14 05:22:15;;;;;;;9.38;3.20;;;25.20;95.00;;;;;;5049569;28;20124;-59
2022/07/14 05:24:41;;;;;;;12.50;3.00;;;24.50;90.90;;;;;;5049777;28;20129;-59
2022/07/14 05:27:06;;;;;;;7.20;2.80;;;25.70;82.60;;;;;;5049081;28;20072;-59
2022/07/14 05:29:33;;;;;;;9.07;2.55;;;26.10;78.80;;;;;;5050227;28;20065;-59
2022/07/14 05:31:58;;;;;;;7.85;2.65;;;26.40;75.00;;;;;;5049517;28;20411;-59
2022/07/14 05:34:24;;;;;;;7.63;2.72;;;26.60;77.50;;;;;;5049932;28;20048;-60
2022/07/14 05:36:50;;;;;;;9.45;2.92;;;26.60;70.60;;;;;;5049674;28;20059;-60
2022/07/14 05:39:15;;;;;;;8.82;2.67;;;28.90;71.40;;;;;;5050209;28;20099;-59
2022/07/14 05:41:41;;;;;;;9.55;2.80;;;26.80;68.50;;;;;;5049364;28;20048;-61
2022/07/14 05:44:07;;;;;;;8.95;2.90;;;26.90;66.90;;;;;;5049789;28;20404;-59
2022/07/14 05:46:33;;;;;;;6.82;2.50;;;27.40;65.70;;;;;;5050041;28;20044;-60
2022/07/14 05:48:58;;;;;;;10.40;2.40;;;27.90;63.90;;;;;;5049627;28;20099;-59
2022/07/14 05:51:24;;;;;;;9.82;2.90;;;28.20;62.10;;;;;;5050040;28;20114;-60
2022/07/14 05:53:50;;;;;;;7.65;2.50;;;29.00;66.90;;;;;;5051372;28;20049;-60
2022/07/14 05:56:17;;;;;;;18.27;3.08;;;29.20;59.90;;;;;;5053739;28;20081;-59
2022/07/14 05:58:44;;;;;;;25.38;3.30;;;29.40;58.30;;;;;;5053660;28;20048;-59
2022/07/14 06:01:10;;;;;;;11.57;2.55;;;28.30;66.20;;;;;;5036181;28;20056;-59
2022/07/14 06:03:36;;;;;;;9.57;2.60;;;27.60;68.20;;;;;;5053698;28;20095;-59
2022/07/14 06:06:05;;;;;;;6.85;2.33;;;27.40;68.70;;;;;;5053656;28;20102;-59
2022/07/14 06:08:31;;;;;;;6.43;2.25;;;27.60;68.90;;;;;;5053408;28;20098;-59
2022/07/14 06:10:58;;;;;;;9.63;2.55;;;27.80;66.60;;;;;;5053046;28;20045;-59
2022/07/14 06:13:28;;;;;;;6.97;2.22;;;28.00;59.00;;;;;;5053811;28;20451;-60
2022/07/14 06:15:58;;;;;;;8.23;2.33;;;28.60;57.20;;;;;;5053114;28;20059;-59
2022/07/14 06:18:24;;;;;;;8.57;2.38;;;29.20;56.50;;;;;;5053529;28;20110;-60
2022/07/14 06:20:49;;;;;;;7.20;2.20;;;30.40;64.50;;;;;;5053233;28;20045;-60
2022/07/14 06:23:15;;;;;;;7.28;2.22;;;29.90;55.50;;;;;;5053840;28;20451;-60
2022/07/14 06:25:41;;;;;;;6.70;2.20;;;30.30;61.70;;;;;;5052862;28;20321;-59
2022/07/14 06:28:07;;;;;;;7.47;2.20;;;29.70;54.10;;;;;;5052864;28;20055;-59
2022/07/14 06:30:34;;;;;;;6.70;2.20;;;28.60;56.00;;;;;;5035704;28;20053;-59
2022/07/14 06:33:00;;;;;;;8.38;2.60;;;27.40;69.60;;;;;;5053005;28;20045;-59
2022/07/14 06:35:26;;;;;;;9.13;2.83;;;26.80;60.70;;;;;;5053294;28;20055;-59
2022/07/14 06:37:52;;;;;;;7.10;2.30;;;25.40;74.10;;;;;;5034529;28;20114;-59
2022/07/14 06:40:18;;;;;;;9.00;2.40;;;25.10;66.60;;;;;;5052540;28;20072;-59
2022/07/14 06:42:44;;;;;;;13.10;2.80;;;23.90;82.10;;;;;;5052966;28;20053;-59
2022/07/14 06:45:10;;;;;;;8.48;2.72;;;24.00;73.60;;;;;;5053424;28;20053;-59
2022/07/14 06:47:36;;;;;;;8.65;2.20;;;23.70;76.30;;;;;;5052965;28;20045;-59
2022/07/14 06:50:02;;;;;;;8.68;2.25;;;23.50;78.70;;;;;;5052237;28;20051;-59
2022/07/14 06:52:28;;;;;;;9.45;2.30;;;23.20;79.10;;;;;;5053213;28;20055;-59
2022/07/14 06:54:56;;;;;;;10.35;2.53;;;23.30;80.60;;;;;;5033995;28;20045;-59
2022/07/14 06:57:22;;;;;;;8.70;2.20;;;22.60;88.10;;;;;;5034787;28;20061;-59
2022/07/14 06:59:47;;;;;;;10.20;2.10;;;23.20;80.20;;;;;;5052380;28;20044;-59
2022/07/14 07:02:13;;;;;;;8.38;2.08;;;22.60;90.70;;;;;;5053025;28;20052;-59
2022/07/14 07:04:39;;;;;;;11.18;2.28;;;22.80;83.30;;;;;;5052334;28;20045;-59
2022/07/14 07:07:04;;;;;;;7.30;1.80;;;22.40;84.30;;;;;;5052404;28;20041;-59
2022/07/14 07:09:30;;;;;;;7.75;2.20;;;21.60;92.80;;;;;;5052163;28;20049;-59
2022/07/14 07:11:56;;;;;;;10.30;2.13;;;21.70;88.70;;;;;;5034447;28;20488;-59
2022/07/14 07:14:21;;;;;;;11.23;2.33;;;21.50;91.20;;;;;;5052647;28;20068;-59
2022/07/14 07:16:48;;;;;;;8.05;1.92;;;22.20;94.00;;;;;;5052113;28;20048;-59
2022/07/14 07:19:15;;;;;;;9.20;2.30;;;22.50;91.70;;;;;;5052678;28;20408;-59
2022/07/14 07:21:41;;;;;;;8.60;2.20;;;22.80;86.20;;;;;;5051997;28;20100;-59
2022/07/14 07:24:07;;;;;;;9.25;2.00;;;23.10;84.30;;;;;;5052199;28;20052;-59
2022/07/14 07:26:35;;;;;;;12.20;2.10;;;23.70;89.50;;;;;;5034702;28;20124;-59
2022/07/14 07:29:01;;;;;;;8.75;2.20;;;23.80;81.30;;;;;;5051889;28;20049;-59
2022/07/14 07:31:27;;;;;;;10.50;2.05;;;24.20;84.00;;;;;;5064453;28;20076;-59
2022/07/14 07:33:53;;;;;;;8.75;1.90;;;24.80;75.80;;;;;;5072171;28;20068;-59
2022/07/14 07:36:19;;;;;;;5.53;1.85;;;25.00;75.50;;;;;;5072361;28;20056;-60
2022/07/14 07:38:44;;;;;;;7.65;1.90;;;25.50;74.80;;;;;;5053567;28;20056;-59
2022/07/14 07:41:10;;;;;;;9.05;2.00;;;25.80;78.40;;;;;;5072201;28;20037;-59
2022/07/14 07:43:36;;;;;;;6.13;1.80;;;25.50;71.50;;;;;;5072189;28;20045;-60
2022/07/14 07:46:03;;;;;;;4.53;1.50;;;25.50;74.80;;;;;;5071890;28;20045;-59
2022/07/14 07:48:29;;;;;;;5.15;1.73;;;25.40;68.50;;;;;;5054130;28;20045;-59
2022/07/14 07:50:55;;;;;;;4.85;1.60;;;25.50;75.80;;;;;;5071225;28;20395;-60
2022/07/14 07:53:22;;;;;;;6.78;1.98;;;25.40;68.20;;;;;;5053803;28;20053;-60
2022/07/14 07:55:48;;;;;;;5.28;1.40;;;25.40;68.30;;;;;;5071892;28;20089;-59
2022/07/14 07:58:14;;;;;;;5.82;1.80;;;25.00;68.40;;;;;;5053793;28;20047;-59
2022/07/14 08:00:40;;;;;;;6.50;1.65;;;24.40;76.60;;;;;;5071600;28;20044;-59
2022/07/14 08:03:06;;;;;;;5.55;1.60;;;24.20;69.90;;;;;;5071375;28;20131;-60
2022/07/14 08:05:32;;;;;;;4.75;1.50;;;24.00;68.70;;;;;;5071137;28;20571;-59
2022/07/14 08:07:59;;;;;;;8.90;1.50;;;24.40;78.40;;;;;;5070680;28;20055;-59
2022/07/14 08:10:25;;;;;;;6.30;1.67;;;24.50;78.60;;;;;;5071693;28;20048;-59
2022/07/14 08:12:52;;;;;;;5.20;1.58;;;25.30;78.50;;;;;;5070574;28;20063;-59
2022/07/14 08:15:18;;;;;;;7.22;1.67;;;24.20;77.30;;;;;;5036965;28;20098;-59
2022/07/14 08:17:44;;;;;;;6.53;1.80;;;25.20;70.00;;;;;;5069892;28;20050;-59
2022/07/14 08:20:10;;;;;;;9.73;1.88;;;25.10;68.70;;;;;;5070610;28;20090;-59
2022/07/14 08:22:38;;;;;;;7.50;1.67;;;24.10;78.00;;;;;;5071368;28;20571;-59
2022/07/14 08:25:07;;;;;;;7.30;2.20;;;24.30;69.90;;;;;;5071635;28;20044;-59
2022/07/14 08:27:33;;;;;;;5.60;1.70;;;23.90;70.10;;;;;;5053285;28;20090;-59
2022/07/14 08:30:00;;;;;;;10.63;1.75;;;23.30;81.00;;;;;;5070346;28;20522;-59
2022/07/14 08:32:42;;;;;;;7.93;1.90;;;23.80;72.20;;;;;;5070815;28;20044;-59
2022/07/14 08:35:10;;;;;;;6.60;1.50;;;24.00;71.50;;;;;;5070900;28;20052;-59
2022/07/14 08:37:37;;;;;;;6.22;1.60;;;23.90;76.50;;;;;;5065001;28;20052;-60
2022/07/14 08:40:08;;;;;;;6.10;1.50;;;23.70;70.20;;;;;;5050515;28;20049;-61
2022/07/14 08:42:36;;;;;;;5.05;1.63;;;23.50;71.40;;;;;;5050709;28;20040;-61
2022/07/14 08:45:10;;;;;;;3.85;1.30;;;22.90;81.90;;;;;;5050698;28;20084;-60
2022/07/14 08:47:37;;;;;;;6.32;1.50;;;22.10;82.50;;;;;;5051469;28;20045;-61
2022/07/14 08:50:05;;;;;;;3.90;1.40;;;23.20;81.20;;;;;;5050247;28;20044;-60
2022/07/14 08:52:32;;;;;;;6.00;1.70;;;23.00;72.80;;;;;;5050355;28;20067;-60
2022/07/14 08:54:58;;;;;;;6.25;1.52;;;23.30;73.30;;;;;;5049828;28;20091;-61
2022/07/14 08:57:24;;;;;;;7.18;1.50;;;23.50;72.00;;;;;;5033014;28;20084;-61
2022/07/14 08:59:50;;;;;;;8.13;1.70;;;23.70;73.00;;;;;;5050252;28;20045;-60
2022/07/14 09:02:16;;;;;;;3.25;1.25;;;23.80;72.60;;;;;;5050632;28;20132;-61
2022/07/14 09:04:45;;;;;;;7.03;1.83;;;23.70;72.40;;;;;;5050367;28;20064;-60
2022/07/14 09:07:12;;;;;;;6.43;1.35;;;23.50;72.40;;;;;;5032652;28;20136;-61
2022/07/14 09:09:38;;;;;;;6.55;1.70;;;23.30;73.10;;;;;;5050345;28;20045;-61
2022/07/14 09:12:06;;;;;;;3.40;1.23;;;23.50;72.40;;;;;;5050196;28;20059;-61
2022/07/14 09:17:24;;;;;;;2.92;1.33;;;23.80;67.20;;;;;;5050199;28;20052;-60
2022/07/14 09:20:11;;;;;;;3.05;1.25;;;23.70;68.30;;;;;;5015241;28;20124;-60
2022/07/14 09:22:39;;;;;;;5.22;1.30;;;24.10;74.80;;;;;;5050372;28;20052;-60
2022/07/14 09:25:08;;;;;;;4.72;1.48;;;24.00;75.10;;;;;;5050431;28;20124;-60
2022/07/14 09:27:34;;;;;;;5.90;1.30;;;24.20;68.10;;;;;;5031946;28;20045;-60
2022/07/14 09:30:00;;;;;;;4.47;1.38;;;24.20;68.50;;;;;;5049858;28;20040;-60
2022/07/14 09:33:01;;;;;;;4.95;1.63;;;23.70;73.30;;;;;;5050125;28;20041;-61
2022/07/14 09:35:39;;;;;;;5.50;1.50;;;23.80;65.30;;;;;;5049972;28;20396;-61
2022/07/14 09:38:25;;;;;;;7.82;1.40;;;23.90;67.40;;;;;;5049378;28;20142;-61
2022/07/14 09:40:51;;;;;;;4.97;1.60;;;24.20;66.10;;;;;;5049903;28;20049;-61
2022/07/14 09:43:17;;;;;;;4.22;1.45;;;24.50;66.00;;;;;;5049791;28;20056;-62
2022/07/14 09:45:50;;;;;;;6.68;1.10;;;24.60;65.50;;;;;;5048482;28;20080;-61
2022/07/14 09:48:21;;;;;;;4.68;1.38;;;24.50;63.90;;;;;;5050003;28;20060;-61
2022/07/14 09:50:57;;;;;;;6.95;1.67;;;24.70;77.60;;;;;;5049437;28;20148;-61
2022/07/14 09:53:30;;;;;;;6.25;1.48;;;24.00;67.20;;;;;;5049795;28;20131;-61
2022/07/14 09:56:06;;;;;;;4.78;1.50;;;23.90;67.60;;;;;;5049300;28;20084;-60
2022/07/14 09:58:44;;;;;;;3.30;1.50;;;24.10;76.60;;;;;;5049943;28;20562;-61
2022/07/14 10:01:15;;;;;;;4.70;1.80;;;23.80;74.50;;;;;;5050123;28;20123;-61
2022/07/14 10:03:44;;;;;;;4.40;1.50;;;24.30;75.80;;;;;;5047703;28;20543;-61
2022/07/14 10:06:11;;;;;;;4.70;1.40;;;23.80;68.50;;;;;;5049843;28;20053;-61
2022/07/14 10:08:43;;;;;;;5.82;1.20;;;23.90;68.00;;;;;;5049650;28;20041;-61
2022/07/14 10:11:09;;;;;;;6.22;1.27;;;24.00;68.60;;;;;;5050233;28;20416;-61
2022/07/14 10:13:37;;;;;;;2.63;1.05;;;24.00;75.60;;;;;;5049852;28;20055;-61
2022/07/14 10:16:03;;;;;;;4.05;1.20;;;23.90;67.20;;;;;;5048764;28;20571;-60
2022/07/14 10:18:29;;;;;;;3.97;1.20;;;23.80;66.30;;;;;;5049464;28;20052;-60
2022/07/14 10:20:57;;;;;;;3.13;1.23;;;23.90;67.70;;;;;;5049510;28;20056;-61
2022/07/14 10:23:25;;;;;;;4.72;1.10;;;23.80;66.30;;;;;;5049155;28;20489;-60
2022/07/14 10:25:56;;;;;;;6.15;1.33;;;23.50;66.20;;;;;;5048969;28;20087;-61
2022/07/14 10:28:22;;;;;;;5.53;1.50;;;22.50;76.00;;;;;;5049450;28;20052;-61
2022/07/14 10:31:16;;;;;;;5.65;1.30;;;23.10;78.30;;;;;;5048446;28;20037;-60
2022/07/14 10:34:00;;;;;;;4.53;1.42;;;23.10;70.50;;;;;;5049385;28;20088;-60
2022/07/14 10:36:42;;;;;;;4.63;1.40;;;22.70;79.20;;;;;;5031868;28;20051;-61
2022/07/14 10:39:21;;;;;;;5.00;1.08;;;22.70;71.20;;;;;;5049436;28;20060;-60
2022/07/14 10:41:57;;;;;;;7.72;1.40;;;22.70;71.80;;;;;;5052683;28;20049;-60
2022/07/14 10:44:26;;;;;;;3.30;1.20;;;22.40;81.80;;;;;;5035288;28;20059;-60
2022/07/14 10:47:12;;;;;;;3.30;1.27;;;22.50;72.90;;;;;;5052261;28;20080;-61
2022/07/14 10:50:00;;;;;;;5.18;1.45;;;22.50;73.00;;;;;;5035387;28;20053;-60
2022/07/14 10:52:27;;;;;;;4.43;1.48;;;22.50;81.20;;;;;;5053201;28;20045;-60
2022/07/14 10:55:13;;;;;;;4.75;1.50;;;22.60;73.40;;;;;;5034625;28;20431;-60
2022/07/14 10:57:39;;;;;;;5.18;1.30;;;22.70;82.20;;;;;;5052116;28;20385;-61
2022/07/14 11:00:06;;;;;;;4.68;1.30;;;22.70;72.50;;;;;;5052028;28;20048;-60
2022/07/14 11:02:34;;;;;;;4.63;1.30;;;22.80;73.20;;;;;;5052787;28;20071;-60
2022/07/14 11:05:02;;;;;;;6.72;1.70;;;22.90;73.80;;;;;;5052660;28;20115;-60
2022/07/14 11:07:46;;;;;;;2.75;1.10;;;23.60;80.60;;;;;;5052808;28;20124;-60
2022/07/14 11:10:18;;;;;;;3.22;1.38;;;22.80;81.30;;;;;;5052688;28;20057;-60
2022/07/14 11:12:59;;;;;;;7.28;1.50;;;22.80;73.00;;;;;;5052010;28;20048;-61
2022/07/14 11:15:39;;;;;;;2.92;1.20;;;22.90;73.90;;;;;;5052410;28;20045;-61
2022/07/14 11:18:17;;;;;;;3.33;1.40;;;22.90;72.40;;;;;;5052473;28;20045;-60
2022/07/14 11:21:12;;;;;;;6.50;1.25;;;22.90;73.10;;;;;;5052371;28;20496;-61
2022/07/14 11:23:47;;;;;;;4.50;1.40;;;23.00;71.10;;;;;;5051931;28;20588;-60
2022/07/14 11:26:31;;;;;;;4.45;1.17;;;23.10;73.10;;;;;;5034702;28;20056;-60
2022/07/14 11:28:58;;;;;;;4.03;1.33;;;23.10;72.50;;;;;;5051631;28;20475;-60
2022/07/14 11:31:24;;;;;;;3.53;1.38;;;23.00;73.60;;;;;;5052175;28;20049;-60
2022/07/14 11:37:02;;;;;;;4.45;1.30;;;22.90;72.90;;;;;;4989699;28;20052;-60
2022/07/14 11:39:34;;;;;;;2.90;1.20;;;22.90;73.60;;;;;;4990640;28;20050;-61
2022/07/14 11:42:03;;;;;;;3.13;1.17;;;22.80;73.50;;;;;;4989707;28;20054;-61
2022/07/14 11:44:40;;;;;;;2.60;1.02;;;22.80;73.00;;;;;;4990157;28;20097;-61
2022/07/14 11:47:17;;;;;;;4.38;1.73;;;22.80;72.40;;;;;;4990290;28;20054;-61
2022/07/14 11:50:00;;;;;;;4.65;1.23;;;22.90;80.20;;;;;;4990207;28;20097;-61
2022/07/14 11:52:31;;;;;;;4.22;1.30;;;22.90;71.40;;;;;;4972727;28;20124;-61
2022/07/14 11:54:59;;;;;;;4.40;1.40;;;22.90;72.30;;;;;;4989665;28;20056;-61
2022/07/14 11:57:25;;;;;;;4.80;1.80;;;22.80;72.20;;;;;;4973310;28;20061;-61
2022/07/14 11:59:53;;;;;;;4.10;1.35;;;22.90;72.00;;;;;;4989763;28;20054;-60
2022/07/14 12:02:20;;;;;;;6.28;1.52;;;22.90;71.30;;;;;;4989816;28;20058;-61
2022/07/14 12:04:49;;;;;;;3.85;1.20;;;23.10;71.40;;;;;;4989345;28;20394;-61
2022/07/14 12:07:15;;;;;;;9.25;1.40;;;23.40;82.10;;;;;;5007521;28;20055;-61
2022/07/14 12:09:42;;;;;;;5.22;1.30;;;23.30;83.90;;;;;;5033969;28;20061;-61
2022/07/14 12:12:08;;;;;;;3.75;1.05;;;23.10;78.70;;;;;;5050897;28;20411;-61
2022/07/14 12:14:46;;;;;;;2.92;1.17;;;23.30;73.20;;;;;;5051317;28;20045;-60
2022/07/14 12:17:13;;;;;;;4.00;1.00;;;23.20;71.90;;;;;;5051517;28;20060;-61
2022/07/14 12:19:38;;;;;;;5.90;1.48;;;23.20;72.90;;;;;;5033694;28;20045;-61
2022/07/14 12:22:05;;;;;;;4.03;1.25;;;23.10;73.40;;;;;;5033437;28;20110;-61
2022/07/14 12:24:32;;;;;;;5.75;1.45;;;23.10;74.20;;;;;;5033249;28;20061;-61
2022/07/14 12:27:04;;;;;;;2.35;1.20;;;23.70;82.60;;;;;;5050540;28;20135;-61
2022/07/14 12:29:30;;;;;;;4.07;1.30;;;24.00;81.30;;;;;;5016908;28;20044;-61
2022/07/14 12:31:58;;;;;;;2.97;1.10;;;23.90;71.80;;;;;;5050742;28;20052;-61
2022/07/14 12:34:24;;;;;;;3.13;1.10;;;24.00;70.70;;;;;;5050951;28;20056;-61
2022/07/14 12:36:50;;;;;;;5.20;1.17;;;24.20;70.00;;;;;;5032395;28;20400;-61
2022/07/14 12:39:18;;;;;;;5.20;1.70;;;23.50;74.90;;;;;;5051238;28;20488;-59
2022/07/14 12:41:45;;;;;;;5.32;1.40;;;24.50;69.10;;;;;;5050314;28;20045;-60
2022/07/14 12:44:11;;;;;;;2.67;1.10;;;24.50;68.80;;;;;;5050892;28;20045;-60
2022/07/14 12:46:37;;;;;;;4.50;1.20;;;24.50;69.30;;;;;;5032757;28;20075;-61
2022/07/14 12:49:05;;;;;;;2.22;1.10;;;24.70;74.60;;;;;;5032153;28;20049;-61
2022/07/14 12:51:34;;;;;;;7.95;1.30;;;24.70;73.50;;;;;;5051033;28;20098;-61
2022/07/14 12:54:02;;;;;;;4.68;1.38;;;24.40;66.10;;;;;;5050391;28;20451;-61
2022/07/14 12:56:53;;;;;;;3.70;1.33;;;23.60;75.80;;;;;;5032178;28;20048;-61
2022/07/14 12:59:31;;;;;;;4.60;1.20;;;24.20;66.10;;;;;;5050346;28;20512;-60
2022/07/14 13:02:02;;;;;;;6.78;1.27;;;24.00;67.00;;;;;;5031433;28;20049;-60
2022/07/14 13:04:37;;;;;;;5.15;1.20;;;23.50;74.30;;;;;;5050967;28;20045;-60
2022/07/14 13:07:19;;;;;;;8.68;1.55;;;23.60;67.60;;;;;;5032075;28;20461;-60
2022/07/14 13:10:12;;;;;;;4.68;1.15;;;23.20;74.70;;;;;;5049765;28;20111;-59
2022/07/14 13:12:51;;;;;;;3.38;1.40;;;23.30;67.10;;;;;;5050131;28;20137;-60